sensor_id;sensor_type;location;lat;lon;timestamp;temperature;humidity
67769;DHT22;54569;52.018;5.584;2023-10-31T00:01:04;11.30;99.90
67769;DHT22;54569;52.018;5.584;2023-10-31T00:03:31;11.30;99.90
67769;DHT22;54569;52.018;5.584;2023-10-31T00:05:56;11.30;99.90
67769;DHT22;54569;52.018;5.584;2023-10-31T00:08:22;11.20;99.90
67769;DHT22;54569;52.018;5.584;2023-10-31T00:10:49;11.20;99.90
67769;DHT22;54569;52.018;5.584;2023-10-31T00:13:15;11.20;99.90
67769;DHT22;54569;52.018;5.584;2023-10-31T00:15:41;11.10;99.90
67769;DHT22;54569;52.018;5.584;2023-10-31T00:18:07;11.10;99.90
67769;DHT22;54569;52.018;5.584;2023-10-31T00:20:32;11.00;99.90
67769;DHT22;54569;52.018;5.584;2023-10-31T00:22:58;11.00;99.90
67769;DHT22;54569;52.018;5.584;2023-10-31T00:25:24;11.00;99.90
67769;DHT22;54569;52.018;5.584;2023-10-31T00:27:49;11.00;99.90
67769;DHT22;54569;52.018;5.584;2023-10-31T00:30:15;11.00;99.90
67769;DHT22;54569;52.018;5.584;2023-10-31T00:32:41;10.90;99.90
67769;DHT22;54569;52.018;5.584;2023-10-31T00:35:07;10.90;99.90
67769;DHT22;54569;52.018;5.584;2023-10-31T00:37:33;10.90;99.90
67769;DHT22;54569;52.018;5.584;2023-10-31T00:39:58;10.90;99.90
67769;DHT22;54569;52.018;5.584;2023-10-31T00:42:25;10.90;99.90
67769;DHT22;54569;52.018;5.584;2023-10-31T00:44:51;10.90;99.90
67769;DHT22;54569;52.018;5.584;2023-10-31T00:47:16;10.90;99.90
67769;DHT22;54569;52.018;5.584;2023-10-31T00:49:43;10.90;99.90
67769;DHT22;54569;52.018;5.584;2023-10-31T00:52:08;10.80;99.90
67769;DHT22;54569;52.018;5.584;2023-10-31T00:54:34;10.90;99.90
67769;DHT22;54569;52.018;5.584;2023-10-31T00:57:00;10.90;99.90
67769;DHT22;54569;52.018;5.584;2023-10-31T00:59:25;10.80;99.90
67769;DHT22;54569;52.018;5.584;2023-10-31T01:01:51;10.80;99.90
67769;DHT22;54569;52.018;5.584;2023-10-31T01:04:16;10.90;99.90
67769;DHT22;54569;52.018;5.584;2023-10-31T01:06:43;10.80;99.90
67769;DHT22;54569;52.018;5.584;2023-10-31T01:09:11;10.90;99.90
67769;DHT22;54569;52.018;5.584;2023-10-31T01:11:38;10.80;99.90
67769;DHT22;54569;52.018;5.584;2023-10-31T01:14:04;10.80;99.90
67769;DHT22;54569;52.018;5.584;2023-10-31T01:16:30;10.90;99.90
67769;DHT22;54569;52.018;5.584;2023-10-31T01:18:55;10.90;99.90
67769;DHT22;54569;52.018;5.584;2023-10-31T01:21:21;10.90;99.90
67769;DHT22;54569;52.018;5.584;2023-10-31T01:23:47;10.90;99.90
67769;DHT22;54569;52.018;5.584;2023-10-31T01:26:13;10.90;99.90
67769;DHT22;54569;52.018;5.584;2023-10-31T01:28:39;10.90;99.90
67769;DHT22;54569;52.018;5.584;2023-10-31T01:31:05;10.90;99.90
67769;DHT22;54569;52.018;5.584;2023-10-31T01:33:31;10.90;99.90
67769;DHT22;54569;52.018;5.584;2023-10-31T01:35:57;10.90;99.90
67769;DHT22;54569;52.018;5.584;2023-10-31T01:38:23;10.90;99.90
67769;DHT22;54569;52.018;5.584;2023-10-31T01:40:49;10.90;99.90
67769;DHT22;54569;52.018;5.584;2023-10-31T01:43:37;10.90;99.90
67769;DHT22;54569;52.018;5.584;2023-10-31T01:46:04;10.90;99.90
67769;DHT22;54569;52.018;5.584;2023-10-31T01:48:30;10.90;99.90
67769;DHT22;54569;52.018;5.584;2023-10-31T01:50:59;10.90;99.90
67769;DHT22;54569;52.018;5.584;2023-10-31T01:53:25;10.90;99.90
67769;DHT22;54569;52.018;5.584;2023-10-31T01:55:55;10.90;99.90
67769;DHT22;54569;52.018;5.584;2023-10-31T01:58:25;10.90;99.90
67769;DHT22;54569;52.018;5.584;2023-10-31T02:00:55;10.90;99.90
67769;DHT22;54569;52.018;5.584;2023-10-31T02:03:21;11.00;99.90
67769;DHT22;54569;52.018;5.584;2023-10-31T02:05:47;11.00;99.90
67769;DHT22;54569;52.018;5.584;2023-10-31T02:08:12;10.90;99.90
67769;DHT22;54569;52.018;5.584;2023-10-31T02:10:38;11.00;99.90
67769;DHT22;54569;52.018;5.584;2023-10-31T02:13:14;11.00;99.90
67769;DHT22;54569;52.018;5.584;2023-10-31T02:15:41;11.00;99.90
67769;DHT22;54569;52.018;5.584;2023-10-31T02:18:07;11.00;99.90
67769;DHT22;54569;52.018;5.584;2023-10-31T02:20:34;11.00;99.90
67769;DHT22;54569;52.018;5.584;2023-10-31T02:23:00;11.00;99.90
67769;DHT22;54569;52.018;5.584;2023-10-31T02:25:26;11.00;99.90
67769;DHT22;54569;52.018;5.584;2023-10-31T02:27:51;11.00;99.90
67769;DHT22;54569;52.018;5.584;2023-10-31T02:30:17;11.00;99.90
67769;DHT22;54569;52.018;5.584;2023-10-31T02:32:43;11.10;99.90
67769;DHT22;54569;52.018;5.584;2023-10-31T02:35:09;11.10;99.90
67769;DHT22;54569;52.018;5.584;2023-10-31T02:37:34;11.10;99.90
67769;DHT22;54569;52.018;5.584;2023-10-31T02:40:00;11.10;99.90
67769;DHT22;54569;52.018;5.584;2023-10-31T02:42:27;11.10;99.90
67769;DHT22;54569;52.018;5.584;2023-10-31T02:44:53;11.10;99.90
67769;DHT22;54569;52.018;5.584;2023-10-31T02:47:19;11.10;99.90
67769;DHT22;54569;52.018;5.584;2023-10-31T02:49:44;11.10;99.90
67769;DHT22;54569;52.018;5.584;2023-10-31T02:52:11;11.10;99.90
67769;DHT22;54569;52.018;5.584;2023-10-31T02:54:38;11.10;99.90
67769;DHT22;54569;52.018;5.584;2023-10-31T02:57:04;11.10;99.90
67769;DHT22;54569;52.018;5.584;2023-10-31T02:59:29;11.10;99.90
67769;DHT22;54569;52.018;5.584;2023-10-31T03:01:57;11.10;99.90
67769;DHT22;54569;52.018;5.584;2023-10-31T03:04:23;11.10;99.90
67769;DHT22;54569;52.018;5.584;2023-10-31T03:06:49;11.10;99.90
67769;DHT22;54569;52.018;5.584;2023-10-31T03:09:15;11.10;99.90
67769;DHT22;54569;52.018;5.584;2023-10-31T03:11:43;11.10;99.90
67769;DHT22;54569;52.018;5.584;2023-10-31T03:14:09;11.10;99.90
67769;DHT22;54569;52.018;5.584;2023-10-31T03:16:34;11.10;99.90
67769;DHT22;54569;52.018;5.584;2023-10-31T03:19:01;11.10;99.90
67769;DHT22;54569;52.018;5.584;2023-10-31T03:21:27;11.10;99.90
67769;DHT22;54569;52.018;5.584;2023-10-31T03:23:52;11.10;99.90
67769;DHT22;54569;52.018;5.584;2023-10-31T03:26:21;11.10;99.90
67769;DHT22;54569;52.018;5.584;2023-10-31T03:28:50;11.10;99.90
67769;DHT22;54569;52.018;5.584;2023-10-31T03:31:15;11.10;99.90
67769;DHT22;54569;52.018;5.584;2023-10-31T03:33:42;11.10;99.90
67769;DHT22;54569;52.018;5.584;2023-10-31T03:36:08;11.10;99.90
67769;DHT22;54569;52.018;5.584;2023-10-31T03:38:35;11.10;99.90
67769;DHT22;54569;52.018;5.584;2023-10-31T03:41:02;11.00;99.90
67769;DHT22;54569;52.018;5.584;2023-10-31T03:43:28;11.00;99.90
67769;DHT22;54569;52.018;5.584;2023-10-31T03:45:55;11.00;99.90
67769;DHT22;54569;52.018;5.584;2023-10-31T03:48:21;11.10;99.90
67769;DHT22;54569;52.018;5.584;2023-10-31T03:50:46;11.00;99.90
67769;DHT22;54569;52.018;5.584;2023-10-31T03:53:12;11.00;99.90
67769;DHT22;54569;52.018;5.584;2023-10-31T03:55:38;11.00;99.90
67769;DHT22;54569;52.018;5.584;2023-10-31T03:58:04;11.00;99.90
67769;DHT22;54569;52.018;5.584;2023-10-31T04:00:30;11.00;99.90
67769;DHT22;54569;52.018;5.584;2023-10-31T04:02:56;11.00;99.90
67769;DHT22;54569;52.018;5.584;2023-10-31T04:05:21;11.00;99.90
67769;DHT22;54569;52.018;5.584;2023-10-31T04:07:49;11.00;99.90
67769;DHT22;54569;52.018;5.584;2023-10-31T04:10:15;11.00;99.90
67769;DHT22;54569;52.018;5.584;2023-10-31T04:12:41;11.00;99.90
67769;DHT22;54569;52.018;5.584;2023-10-31T04:15:08;11.00;99.90
67769;DHT22;54569;52.018;5.584;2023-10-31T04:17:33;11.00;99.90
67769;DHT22;54569;52.018;5.584;2023-10-31T04:19:59;11.00;99.90
67769;DHT22;54569;52.018;5.584;2023-10-31T04:22:25;11.00;99.90
67769;DHT22;54569;52.018;5.584;2023-10-31T04:24:50;11.00;99.90
67769;DHT22;54569;52.018;5.584;2023-10-31T04:27:16;11.00;99.90
67769;DHT22;54569;52.018;5.584;2023-10-31T04:29:42;11.00;99.90
67769;DHT22;54569;52.018;5.584;2023-10-31T04:32:08;11.00;99.90
67769;DHT22;54569;52.018;5.584;2023-10-31T04:34:33;11.00;99.90
67769;DHT22;54569;52.018;5.584;2023-10-31T04:36:59;11.00;99.90
67769;DHT22;54569;52.018;5.584;2023-10-31T04:39:25;11.00;99.90
67769;DHT22;54569;52.018;5.584;2023-10-31T04:41:50;11.00;99.90
67769;DHT22;54569;52.018;5.584;2023-10-31T04:44:16;11.00;99.90
67769;DHT22;54569;52.018;5.584;2023-10-31T04:46:42;11.00;99.90
67769;DHT22;54569;52.018;5.584;2023-10-31T04:49:08;11.00;99.90
67769;DHT22;54569;52.018;5.584;2023-10-31T04:51:35;11.00;99.90
67769;DHT22;54569;52.018;5.584;2023-10-31T04:54:01;10.90;99.90
67769;DHT22;54569;52.018;5.584;2023-10-31T04:56:27;10.90;99.90
67769;DHT22;54569;52.018;5.584;2023-10-31T04:58:52;11.00;99.90
67769;DHT22;54569;52.018;5.584;2023-10-31T05:01:18;10.90;99.90
67769;DHT22;54569;52.018;5.584;2023-10-31T05:03:45;10.90;99.90
67769;DHT22;54569;52.018;5.584;2023-10-31T05:06:10;10.90;99.90
67769;DHT22;54569;52.018;5.584;2023-10-31T05:08:36;10.90;99.90
67769;DHT22;54569;52.018;5.584;2023-10-31T05:11:02;10.90;99.90
67769;DHT22;54569;52.018;5.584;2023-10-31T05:13:27;10.90;99.90
67769;DHT22;54569;52.018;5.584;2023-10-31T05:15:53;10.90;99.90
67769;DHT22;54569;52.018;5.584;2023-10-31T05:18:19;10.90;99.90
67769;DHT22;54569;52.018;5.584;2023-10-31T05:20:45;10.90;99.90
67769;DHT22;54569;52.018;5.584;2023-10-31T05:23:11;10.90;99.90
67769;DHT22;54569;52.018;5.584;2023-10-31T05:25:37;10.90;99.90
67769;DHT22;54569;52.018;5.584;2023-10-31T05:28:03;10.90;99.90
67769;DHT22;54569;52.018;5.584;2023-10-31T05:30:29;10.90;99.90
67769;DHT22;54569;52.018;5.584;2023-10-31T05:32:55;10.90;99.90
67769;DHT22;54569;52.018;5.584;2023-10-31T05:35:21;10.90;99.90
67769;DHT22;54569;52.018;5.584;2023-10-31T05:37:47;10.90;99.90
67769;DHT22;54569;52.018;5.584;2023-10-31T05:40:13;10.90;99.90
67769;DHT22;54569;52.018;5.584;2023-10-31T05:42:39;10.90;99.90
67769;DHT22;54569;52.018;5.584;2023-10-31T05:45:06;10.80;99.90
67769;DHT22;54569;52.018;5.584;2023-10-31T05:47:31;10.80;99.90
67769;DHT22;54569;52.018;5.584;2023-10-31T05:49:58;10.80;99.90
67769;DHT22;54569;52.018;5.584;2023-10-31T05:52:28;10.80;99.90
67769;DHT22;54569;52.018;5.584;2023-10-31T05:54:55;10.80;99.90
67769;DHT22;54569;52.018;5.584;2023-10-31T05:57:21;10.80;99.90
67769;DHT22;54569;52.018;5.584;2023-10-31T05:59:46;10.70;99.90
67769;DHT22;54569;52.018;5.584;2023-10-31T06:02:13;10.70;99.90
67769;DHT22;54569;52.018;5.584;2023-10-31T06:04:39;10.70;99.90
67769;DHT22;54569;52.018;5.584;2023-10-31T06:07:05;10.70;99.90
67769;DHT22;54569;52.018;5.584;2023-10-31T06:09:31;10.60;99.90
67769;DHT22;54569;52.018;5.584;2023-10-31T06:11:58;10.60;99.90
67769;DHT22;54569;52.018;5.584;2023-10-31T06:14:24;10.60;99.90
67769;DHT22;54569;52.018;5.584;2023-10-31T06:16:51;10.60;99.90
67769;DHT22;54569;52.018;5.584;2023-10-31T06:19:17;10.60;99.90
67769;DHT22;54569;52.018;5.584;2023-10-31T06:21:43;10.60;99.90
67769;DHT22;54569;52.018;5.584;2023-10-31T06:24:09;10.60;99.90
67769;DHT22;54569;52.018;5.584;2023-10-31T06:26:34;10.60;99.90
67769;DHT22;54569;52.018;5.584;2023-10-31T06:29:00;10.60;99.90
67769;DHT22;54569;52.018;5.584;2023-10-31T06:31:26;10.60;99.90
67769;DHT22;54569;52.018;5.584;2023-10-31T06:33:51;10.60;99.90
67769;DHT22;54569;52.018;5.584;2023-10-31T06:36:17;10.60;99.90
67769;DHT22;54569;52.018;5.584;2023-10-31T06:38:43;10.60;99.90
67769;DHT22;54569;52.018;5.584;2023-10-31T06:41:09;10.70;99.90
67769;DHT22;54569;52.018;5.584;2023-10-31T06:43:34;10.70;99.90
67769;DHT22;54569;52.018;5.584;2023-10-31T06:46:00;10.70;99.90
67769;DHT22;54569;52.018;5.584;2023-10-31T06:48:27;10.70;99.90
67769;DHT22;54569;52.018;5.584;2023-10-31T06:50:53;10.70;99.90
67769;DHT22;54569;52.018;5.584;2023-10-31T06:53:19;10.70;99.90
67769;DHT22;54569;52.018;5.584;2023-10-31T06:55:44;10.70;99.90
67769;DHT22;54569;52.018;5.584;2023-10-31T06:58:10;10.70;99.90
67769;DHT22;54569;52.018;5.584;2023-10-31T07:00:36;10.80;99.90
67769;DHT22;54569;52.018;5.584;2023-10-31T07:03:03;10.80;99.90
67769;DHT22;54569;52.018;5.584;2023-10-31T07:05:37;10.80;99.90
67769;DHT22;54569;52.018;5.584;2023-10-31T07:08:03;10.80;99.90
67769;DHT22;54569;52.018;5.584;2023-10-31T07:10:29;10.80;99.90
67769;DHT22;54569;52.018;5.584;2023-10-31T07:12:55;10.90;99.90
67769;DHT22;54569;52.018;5.584;2023-10-31T07:15:21;10.90;99.90
67769;DHT22;54569;52.018;5.584;2023-10-31T07:17:47;10.90;99.90
67769;DHT22;54569;52.018;5.584;2023-10-31T07:20:12;11.00;99.90
67769;DHT22;54569;52.018;5.584;2023-10-31T07:22:38;11.10;99.90
67769;DHT22;54569;52.018;5.584;2023-10-31T07:25:06;11.30;99.90
67769;DHT22;54569;52.018;5.584;2023-10-31T07:27:31;11.40;99.90
67769;DHT22;54569;52.018;5.584;2023-10-31T07:29:57;11.60;99.90
67769;DHT22;54569;52.018;5.584;2023-10-31T07:32:23;11.90;99.90
67769;DHT22;54569;52.018;5.584;2023-10-31T07:34:48;12.10;99.90
67769;DHT22;54569;52.018;5.584;2023-10-31T07:37:14;12.20;99.90
67769;DHT22;54569;52.018;5.584;2023-10-31T07:39:39;12.70;99.90
67769;DHT22;54569;52.018;5.584;2023-10-31T07:42:06;13.30;99.90
67769;DHT22;54569;52.018;5.584;2023-10-31T07:44:31;14.10;99.90
67769;DHT22;54569;52.018;5.584;2023-10-31T07:46:57;15.00;99.90
67769;DHT22;54569;52.018;5.584;2023-10-31T07:49:22;15.80;98.50
67769;DHT22;54569;52.018;5.584;2023-10-31T07:51:48;16.40;96.40
67769;DHT22;54569;52.018;5.584;2023-10-31T07:54:14;17.30;93.60
67769;DHT22;54569;52.018;5.584;2023-10-31T07:56:41;17.70;91.40
67769;DHT22;54569;52.018;5.584;2023-10-31T07:59:07;18.10;90.20
67769;DHT22;54569;52.018;5.584;2023-10-31T08:01:33;18.50;87.50
67769;DHT22;54569;52.018;5.584;2023-10-31T08:03:59;18.90;86.20
67769;DHT22;54569;52.018;5.584;2023-10-31T08:06:25;19.00;84.20
67769;DHT22;54569;52.018;5.584;2023-10-31T08:08:51;18.20;85.30
67769;DHT22;54569;52.018;5.584;2023-10-31T08:11:16;17.40;88.00
67769;DHT22;54569;52.018;5.584;2023-10-31T08:13:42;16.70;90.70
67769;DHT22;54569;52.018;5.584;2023-10-31T08:16:08;16.00;92.10
67769;DHT22;54569;52.018;5.584;2023-10-31T08:18:34;15.50;94.20
67769;DHT22;54569;52.018;5.584;2023-10-31T08:21:00;15.10;96.10
67769;DHT22;54569;52.018;5.584;2023-10-31T08:23:27;14.70;97.90
67769;DHT22;54569;52.018;5.584;2023-10-31T08:25:53;14.40;99.00
67769;DHT22;54569;52.018;5.584;2023-10-31T08:28:19;14.10;99.90
67769;DHT22;54569;52.018;5.584;2023-10-31T08:30:45;13.90;99.90
67769;DHT22;54569;52.018;5.584;2023-10-31T08:33:11;13.70;99.90
67769;DHT22;54569;52.018;5.584;2023-10-31T08:35:37;13.70;99.90
67769;DHT22;54569;52.018;5.584;2023-10-31T08:38:03;13.70;99.90
67769;DHT22;54569;52.018;5.584;2023-10-31T08:40:28;13.90;99.90
67769;DHT22;54569;52.018;5.584;2023-10-31T08:42:54;14.50;99.90
67769;DHT22;54569;52.018;5.584;2023-10-31T08:45:20;15.20;99.90
67769;DHT22;54569;52.018;5.584;2023-10-31T08:47:46;17.70;99.10
67769;DHT22;54569;52.018;5.584;2023-10-31T08:50:12;20.30;89.70
67769;DHT22;54569;52.018;5.584;2023-10-31T08:52:39;22.30;78.60
67769;DHT22;54569;52.018;5.584;2023-10-31T08:55:05;24.20;71.80
67769;DHT22;54569;52.018;5.584;2023-10-31T08:57:31;23.90;68.80
67769;DHT22;54569;52.018;5.584;2023-10-31T08:59:59;22.90;70.50
67769;DHT22;54569;52.018;5.584;2023-10-31T09:02:25;21.80;73.30
67769;DHT22;54569;52.018;5.584;2023-10-31T09:04:50;20.90;75.70
67769;DHT22;54569;52.018;5.584;2023-10-31T09:07:16;20.20;78.70
67769;DHT22;54569;52.018;5.584;2023-10-31T09:09:42;19.70;80.70
67769;DHT22;54569;52.018;5.584;2023-10-31T09:12:08;19.10;82.00
67769;DHT22;54569;52.018;5.584;2023-10-31T09:14:34;18.70;84.80
67769;DHT22;54569;52.018;5.584;2023-10-31T09:17:01;19.30;85.80
67769;DHT22;54569;52.018;5.584;2023-10-31T09:19:27;21.30;82.30
67769;DHT22;54569;52.018;5.584;2023-10-31T09:21:55;24.00;75.10
67769;DHT22;54569;52.018;5.584;2023-10-31T09:24:20;26.30;68.50
67769;DHT22;54569;52.018;5.584;2023-10-31T09:26:46;28.20;64.10
67769;DHT22;54569;52.018;5.584;2023-10-31T09:29:12;29.50;61.20
67769;DHT22;54569;52.018;5.584;2023-10-31T09:31:37;30.40;59.50
67769;DHT22;54569;52.018;5.584;2023-10-31T09:34:03;31.10;58.40
67769;DHT22;54569;52.018;5.584;2023-10-31T09:36:32;31.50;57.60
67769;DHT22;54569;52.018;5.584;2023-10-31T09:38:57;31.80;57.10
67769;DHT22;54569;52.018;5.584;2023-10-31T09:41:23;32.60;56.70
67769;DHT22;54569;52.018;5.584;2023-10-31T09:43:49;33.40;55.60
67769;DHT22;54569;52.018;5.584;2023-10-31T09:46:16;34.00;54.70
67769;DHT22;54569;52.018;5.584;2023-10-31T09:48:43;34.40;54.00
67769;DHT22;54569;52.018;5.584;2023-10-31T09:51:09;34.80;53.50
67769;DHT22;54569;52.018;5.584;2023-10-31T09:53:38;35.10;52.90
67769;DHT22;54569;52.018;5.584;2023-10-31T09:56:07;35.50;52.60
67769;DHT22;54569;52.018;5.584;2023-10-31T09:58:33;35.90;52.10
67769;DHT22;54569;52.018;5.584;2023-10-31T10:01:00;36.30;51.80
67769;DHT22;54569;52.018;5.584;2023-10-31T10:03:26;36.70;51.10
67769;DHT22;54569;52.018;5.584;2023-10-31T10:05:52;36.70;51.00
67769;DHT22;54569;52.018;5.584;2023-10-31T10:08:19;36.40;52.00
67769;DHT22;54569;52.018;5.584;2023-10-31T10:10:45;35.50;52.40
67769;DHT22;54569;52.018;5.584;2023-10-31T10:13:11;34.50;54.20
67769;DHT22;54569;52.018;5.584;2023-10-31T10:15:48;33.80;54.90
67769;DHT22;54569;52.018;5.584;2023-10-31T10:18:31;32.30;50.90
67769;DHT22;54569;52.018;5.584;2023-10-31T10:21:00;30.90;54.30
67769;DHT22;54569;52.018;5.584;2023-10-31T10:23:26;30.30;59.00
67769;DHT22;54569;52.018;5.584;2023-10-31T10:25:53;29.40;60.60
67769;DHT22;54569;52.018;5.584;2023-10-31T10:28:18;28.30;61.60
67769;DHT22;54569;52.018;5.584;2023-10-31T10:30:48;27.20;63.30
67769;DHT22;54569;52.018;5.584;2023-10-31T10:33:14;26.40;63.20
67769;DHT22;54569;52.018;5.584;2023-10-31T10:35:41;25.40;65.30
67769;DHT22;54569;52.018;5.584;2023-10-31T10:38:11;24.30;66.50
67769;DHT22;54569;52.018;5.584;2023-10-31T10:40:52;23.00;68.10
67769;DHT22;54569;52.018;5.584;2023-10-31T10:43:22;22.00;69.80
67769;DHT22;54569;52.018;5.584;2023-10-31T10:45:57;21.20;71.30
67769;DHT22;54569;52.018;5.584;2023-10-31T10:48:24;20.60;71.80
67769;DHT22;54569;52.018;5.584;2023-10-31T10:50:57;20.40;72.60
67769;DHT22;54569;52.018;5.584;2023-10-31T10:53:27;20.10;71.90
67769;DHT22;54569;52.018;5.584;2023-10-31T10:56:02;19.60;72.80
67769;DHT22;54569;52.018;5.584;2023-10-31T10:58:51;19.20;72.90
67769;DHT22;54569;52.018;5.584;2023-10-31T11:01:19;18.70;71.90
67769;DHT22;54569;52.018;5.584;2023-10-31T11:03:46;18.20;74.90
67769;DHT22;54569;52.018;5.584;2023-10-31T11:06:12;17.90;75.70
67769;DHT22;54569;52.018;5.584;2023-10-31T11:08:39;18.40;75.40
67769;DHT22;54569;52.018;5.584;2023-10-31T11:11:06;20.20;70.40
67769;DHT22;54569;52.018;5.584;2023-10-31T11:13:32;22.00;66.20
67769;DHT22;54569;52.018;5.584;2023-10-31T11:16:04;23.30;62.70
67769;DHT22;54569;52.018;5.584;2023-10-31T11:18:34;23.80;61.10
67769;DHT22;54569;52.018;5.584;2023-10-31T11:21:00;23.50;61.80
67769;DHT22;54569;52.018;5.584;2023-10-31T11:23:27;23.00;62.40
67769;DHT22;54569;52.018;5.584;2023-10-31T11:25:53;22.10;63.70
67769;DHT22;54569;52.018;5.584;2023-10-31T11:28:20;21.20;66.00
67769;DHT22;54569;52.018;5.584;2023-10-31T11:30:50;20.30;67.60
67769;DHT22;54569;52.018;5.584;2023-10-31T11:33:19;19.70;68.80
67769;DHT22;54569;52.018;5.584;2023-10-31T11:35:50;19.00;70.00
67769;DHT22;54569;52.018;5.584;2023-10-31T11:38:16;18.50;70.70
67769;DHT22;54569;52.018;5.584;2023-10-31T11:43:13;17.70;72.60
67769;DHT22;54569;52.018;5.584;2023-10-31T11:48:06;17.00;73.90
67769;DHT22;54569;52.018;5.584;2023-10-31T11:50:32;16.90;74.20
67769;DHT22;54569;52.018;5.584;2023-10-31T11:53:05;17.10;73.60
67769;DHT22;54569;52.018;5.584;2023-10-31T11:55:36;17.30;72.70
67769;DHT22;54569;52.018;5.584;2023-10-31T11:58:21;17.60;72.10
67769;DHT22;54569;52.018;5.584;2023-10-31T12:00:48;17.80;70.60
67769;DHT22;54569;52.018;5.584;2023-10-31T12:03:21;17.80;71.00
67769;DHT22;54569;52.018;5.584;2023-10-31T12:05:57;18.00;70.50
67769;DHT22;54569;52.018;5.584;2023-10-31T12:08:30;17.80;70.10
67769;DHT22;54569;52.018;5.584;2023-10-31T12:11:16;17.60;70.90
67769;DHT22;54569;52.018;5.584;2023-10-31T12:13:53;17.40;70.20
67769;DHT22;54569;52.018;5.584;2023-10-31T12:16:26;16.90;71.50
67769;DHT22;54569;52.018;5.584;2023-10-31T12:24:05;16.10;73.60
67769;DHT22;54569;52.018;5.584;2023-10-31T12:26:35;16.00;74.60
67769;DHT22;54569;52.018;5.584;2023-10-31T12:31:33;15.80;74.90
67769;DHT22;54569;52.018;5.584;2023-10-31T12:34:07;15.60;75.40
67769;DHT22;54569;52.018;5.584;2023-10-31T12:36:35;15.50;75.90
67769;DHT22;54569;52.018;5.584;2023-10-31T12:39:02;15.40;76.20
67769;DHT22;54569;52.018;5.584;2023-10-31T12:41:29;15.40;76.20
67769;DHT22;54569;52.018;5.584;2023-10-31T12:43:55;15.40;76.20
67769;DHT22;54569;52.018;5.584;2023-10-31T12:46:28;15.40;76.30
67769;DHT22;54569;52.018;5.584;2023-10-31T12:48:55;15.50;76.30
67769;DHT22;54569;52.018;5.584;2023-10-31T12:51:20;15.60;75.90
67769;DHT22;54569;52.018;5.584;2023-10-31T12:53:50;15.60;75.90
67769;DHT22;54569;52.018;5.584;2023-10-31T12:56:38;15.60;76.10
67769;DHT22;54569;52.018;5.584;2023-10-31T12:59:09;15.60;76.10
67769;DHT22;54569;52.018;5.584;2023-10-31T13:01:36;15.60;75.90
67769;DHT22;54569;52.018;5.584;2023-10-31T13:04:05;15.70;75.80
67769;DHT22;54569;52.018;5.584;2023-10-31T13:06:31;15.60;75.90
67769;DHT22;54569;52.018;5.584;2023-10-31T13:08:57;15.60;76.10
67769;DHT22;54569;52.018;5.584;2023-10-31T13:11:23;15.50;76.40
67769;DHT22;54569;52.018;5.584;2023-10-31T13:13:54;15.50;76.60
67769;DHT22;54569;52.018;5.584;2023-10-31T13:16:20;15.50;76.70
67769;DHT22;54569;52.018;5.584;2023-10-31T13:18:46;15.40;76.90
67769;DHT22;54569;52.018;5.584;2023-10-31T13:21:12;15.30;77.00
67769;DHT22;54569;52.018;5.584;2023-10-31T13:23:40;15.20;77.10
67769;DHT22;54569;52.018;5.584;2023-10-31T13:26:09;15.20;77.30
67769;DHT22;54569;52.018;5.584;2023-10-31T13:28:34;15.20;77.50
67769;DHT22;54569;52.018;5.584;2023-10-31T13:31:00;15.10;77.60
67769;DHT22;54569;52.018;5.584;2023-10-31T13:33:27;15.10;77.60
67769;DHT22;54569;52.018;5.584;2023-10-31T13:35:54;15.00;77.80
67769;DHT22;54569;52.018;5.584;2023-10-31T13:38:20;15.00;78.00
67769;DHT22;54569;52.018;5.584;2023-10-31T13:40:45;14.90;78.10
67769;DHT22;54569;52.018;5.584;2023-10-31T13:43:11;14.80;78.40
67769;DHT22;54569;52.018;5.584;2023-10-31T13:45:37;14.80;78.60
67769;DHT22;54569;52.018;5.584;2023-10-31T13:48:02;14.80;78.60
67769;DHT22;54569;52.018;5.584;2023-10-31T13:50:28;14.70;78.50
67769;DHT22;54569;52.018;5.584;2023-10-31T13:52:55;14.60;78.70
67769;DHT22;54569;52.018;5.584;2023-10-31T13:55:21;14.60;78.80
67769;DHT22;54569;52.018;5.584;2023-10-31T13:57:46;14.60;79.00
67769;DHT22;54569;52.018;5.584;2023-10-31T14:00:13;14.50;79.00
67769;DHT22;54569;52.018;5.584;2023-10-31T14:02:39;14.40;79.10
67769;DHT22;54569;52.018;5.584;2023-10-31T14:05:05;14.30;79.40
67769;DHT22;54569;52.018;5.584;2023-10-31T14:07:31;14.30;79.60
67769;DHT22;54569;52.018;5.584;2023-10-31T14:09:57;14.20;79.80
67769;DHT22;54569;52.018;5.584;2023-10-31T14:12:23;14.30;79.80
67769;DHT22;54569;52.018;5.584;2023-10-31T14:14:51;14.30;79.90
67769;DHT22;54569;52.018;5.584;2023-10-31T14:17:17;14.30;79.90
67769;DHT22;54569;52.018;5.584;2023-10-31T14:19:43;14.30;79.90
67769;DHT22;54569;52.018;5.584;2023-10-31T14:22:08;14.30;80.00
67769;DHT22;54569;52.018;5.584;2023-10-31T14:24:34;14.30;80.10
67769;DHT22;54569;52.018;5.584;2023-10-31T14:27:01;14.30;80.30
67769;DHT22;54569;52.018;5.584;2023-10-31T14:29:26;14.30;80.50
67769;DHT22;54569;52.018;5.584;2023-10-31T14:31:52;14.20;80.60
67769;DHT22;54569;52.018;5.584;2023-10-31T14:34:23;14.20;80.80
67769;DHT22;54569;52.018;5.584;2023-10-31T14:36:48;14.20;81.10
67769;DHT22;54569;52.018;5.584;2023-10-31T14:39:15;14.10;81.40
67769;DHT22;54569;52.018;5.584;2023-10-31T14:41:40;14.10;81.60
67769;DHT22;54569;52.018;5.584;2023-10-31T14:44:06;14.10;81.80
67769;DHT22;54569;52.018;5.584;2023-10-31T14:46:33;14.10;82.00
67769;DHT22;54569;52.018;5.584;2023-10-31T14:48:59;14.00;82.10
67769;DHT22;54569;52.018;5.584;2023-10-31T14:51:25;13.90;82.30
67769;DHT22;54569;52.018;5.584;2023-10-31T14:53:50;13.80;82.70
67769;DHT22;54569;52.018;5.584;2023-10-31T14:56:17;13.80;82.80
67769;DHT22;54569;52.018;5.584;2023-10-31T14:58:43;13.80;83.10
67769;DHT22;54569;52.018;5.584;2023-10-31T15:01:08;13.70;83.10
67769;DHT22;54569;52.018;5.584;2023-10-31T15:03:34;13.60;83.30
67769;DHT22;54569;52.018;5.584;2023-10-31T15:05:59;13.60;83.40
67769;DHT22;54569;52.018;5.584;2023-10-31T15:08:25;13.50;83.70
67769;DHT22;54569;52.018;5.584;2023-10-31T15:10:52;13.50;84.00
67769;DHT22;54569;52.018;5.584;2023-10-31T15:13:17;13.40;84.30
67769;DHT22;54569;52.018;5.584;2023-10-31T15:15:43;13.40;84.70
67769;DHT22;54569;52.018;5.584;2023-10-31T15:18:09;13.30;85.00
67769;DHT22;54569;52.018;5.584;2023-10-31T15:20:35;13.20;85.40
67769;DHT22;54569;52.018;5.584;2023-10-31T15:23:01;13.20;86.00
67769;DHT22;54569;52.018;5.584;2023-10-31T15:25:27;13.10;86.50
67769;DHT22;54569;52.018;5.584;2023-10-31T15:27:52;13.10;87.50
67769;DHT22;54569;52.018;5.584;2023-10-31T15:30:18;13.10;87.30
67769;DHT22;54569;52.018;5.584;2023-10-31T15:32:44;13.10;87.80
67769;DHT22;54569;52.018;5.584;2023-10-31T15:35:09;13.00;88.30
67769;DHT22;54569;52.018;5.584;2023-10-31T15:37:35;13.00;88.60
67769;DHT22;54569;52.018;5.584;2023-10-31T15:40:01;13.00;89.10